Time;durP1;ratioP1;P1;durP2;ratioP2;P2;SDS_P1;SDS_P2;PMS_P1;PMS_P2;Temp;Humidity;BMP_temperature;BMP_pressure;BME280_temperature;BME280_humidity;BME280_pressure;Samples;Min_cycle;Max_cycle;Signal;HPM_P1;HPM_P2
2022/08/11 03:00:29;;;;;;;;;;;29.00;34.80;;;;;;5882156;23;45831;-61
2022/08/11 03:03:15;;;;;;;;;;;29.00;34.80;;;;;;4889754;28;45858;-62
2022/08/11 03:05:59;;;;;;;;;;;29.00;34.80;;;;;;4881011;29;46079;-61
2022/08/11 03:08:50;;;;;;;;;;;29.00;34.80;;;;;;4896324;29;44610;-61
2022/08/11 03:17:12;;;;;;;;;;;29.00;34.90;;;;;;4882501;29;46163;-61
2022/08/11 03:19:47;;;;;;;;;;;29.00;34.90;;;;;;4881393;29;45347;-61
2022/08/11 03:22:28;;;;;;;;;;;29.00;35.00;;;;;;4875782;29;45471;-61
2022/08/11 03:25:00;;;;;;;;;;;29.00;35.00;;;;;;4896892;29;44949;-61
2022/08/11 03:27:29;;;;;;;;;;;29.00;34.90;;;;;;4874594;29;45968;-61
2022/08/11 03:30:01;;;;;;;;;;;29.00;35.00;;;;;;4880296;29;45213;-61
2022/08/11 03:32:35;;;;;;;;;;;29.00;35.00;;;;;;4881142;29;45117;-61
2022/08/11 03:35:01;;;;;;;;;;;29.00;35.00;;;;;;4882164;29;45025;-61
2022/08/11 03:37:50;;;;;;;;;;;29.00;34.90;;;;;;4875967;29;46123;-60
2022/08/11 03:43:28;;;;;;;;;;;29.00;35.00;;;;;;4880478;29;45195;-61
2022/08/11 03:46:00;;;;;;;;;;;29.00;35.00;;;;;;4876259;29;44844;-61
2022/08/11 03:48:38;;;;;;;;;;;29.00;35.00;;;;;;4894436;29;45354;-61
2022/08/11 03:51:21;;;;;;;;;;;29.00;35.00;;;;;;4881093;29;45057;-60
2022/08/11 03:54:05;;;;;;;;;;;29.00;35.00;;;;;;4896126;29;45450;-61
2022/08/11 03:56:43;;;;;;;;;;;28.90;35.00;;;;;;4878235;29;45353;-61
2022/08/11 03:59:19;;;;;;;;;;;28.90;35.00;;;;;;4881058;29;46054;-61
2022/08/11 04:01:47;;;;;;;;;;;28.90;35.00;;;;;;4875019;29;45193;-60
2022/08/11 04:04:13;;;;;;;;;;;28.90;35.00;;;;;;4880935;29;45224;-60
2022/08/11 04:07:14;;;;;;;;;;;28.90;35.00;;;;;;4880045;29;45446;-61
2022/08/11 04:09:59;;;;;;;;;;;28.90;35.00;;;;;;4846721;29;45051;-61
2022/08/11 04:12:47;;;;;;;;;;;28.90;35.00;;;;;;4880322;29;45327;-60
2022/08/11 04:18:06;;;;;;;;;;;28.90;35.10;;;;;;4870007;29;45263;-60
2022/08/11 04:20:40;;;;;;;;;;;28.90;35.10;;;;;;4881126;29;45977;-61
2022/08/11 04:23:25;;;;;;;;;;;28.90;35.10;;;;;;4872127;29;45286;-61
2022/08/11 04:26:09;;;;;;;;;;;28.90;35.10;;;;;;4878597;29;44616;-60
2022/08/11 04:28:54;;;;;;;;;;;28.90;35.10;;;;;;4879759;29;45495;-61
2022/08/11 04:31:33;;;;;;;;;;;28.90;35.20;;;;;;4859842;29;46432;-61
2022/08/11 04:34:05;;;;;;;;;;;28.90;35.80;;;;;;4865114;29;45426;-61
2022/08/11 04:39:57;;;;;;;;;;;28.90;35.20;;;;;;4880869;29;45443;-61
2022/08/11 04:45:20;;;;;;;;;;;28.80;35.10;;;;;;4858083;29;45511;-60
2022/08/11 05:02:35;;;;;;;;;;;28.80;35.20;;;;;;4875831;29;45731;-62
2022/08/11 05:08:11;;;;;;;;;;;28.80;35.30;;;;;;4882040;29;45224;-60
2022/08/11 05:10:40;;;;;;;;;;;28.70;35.20;;;;;;4871046;29;45171;-61
2022/08/11 05:35:17;;;;;;;;;;;31.20;31.80;;;;;;4871123;29;45602;-61
2022/08/11 05:57:00;;;;;;;;;;;29.30;34.60;;;;;;4880184;29;45194;-60
2022/08/11 05:59:27;;;;;;;;;;;29.20;34.70;;;;;;4863112;29;45315;-61
2022/08/11 06:01:52;;;;;;;;;;;29.10;34.80;;;;;;4876200;29;45574;-60
2022/08/11 06:04:18;;;;;;;;;;;29.10;34.90;;;;;;4863356;29;45505;-61
2022/08/11 06:06:46;;;;;;;;;;;29.00;34.90;;;;;;4873453;29;44832;-61
2022/08/11 06:09:13;;;;;;;;;;;29.00;35.00;;;;;;4878401;29;45161;-62
2022/08/11 06:11:39;;;;;;;;;;;29.00;35.00;;;;;;4881692;29;45474;-61
2022/08/11 06:14:05;;;;;;;;;;;29.10;35.00;;;;;;4884612;29;45389;-61
2022/08/11 06:16:31;;;;;;;;;;;29.10;34.90;;;;;;4882592;29;45193;-61
2022/08/11 06:18:56;;;;;;;;;;;29.20;35.00;;;;;;4866527;29;45923;-61
2022/08/11 06:21:21;;;;;;;;;;;29.20;34.90;;;;;;4863020;29;45473;-61
2022/08/11 06:23:47;;;;;;;;;;;29.20;34.80;;;;;;4883960;29;44839;-59
2022/08/11 06:26:13;;;;;;;;;;;29.30;34.80;;;;;;4874845;29;45192;-61
2022/08/11 06:28:39;;;;;;;;;;;29.30;34.60;;;;;;4880653;29;46702;-61
2022/08/11 06:31:11;;;;;;;;;;;29.50;34.50;;;;;;4881312;29;45176;-60
2022/08/11 06:33:42;;;;;;;;;;;29.50;34.30;;;;;;4882647;29;45436;-60
2022/08/11 06:36:15;;;;;;;;;;;29.60;34.20;;;;;;4882389;29;45289;-61
2022/08/11 06:38:40;;;;;;;;;;;29.60;34.20;;;;;;4862841;29;46359;-60
2022/08/11 06:43:53;;;;;;;;;;;29.60;34.90;;;;;;4865209;29;45302;-60
2022/08/11 06:46:24;;;;;;;;;;;29.50;34.30;;;;;;4872740;29;45483;-60
2022/08/11 06:48:49;;;;;;;;;;;29.50;34.30;;;;;;4861603;29;45368;-61
2022/08/11 06:51:15;;;;;;;;;;;29.50;34.40;;;;;;4875427;29;45230;-60
2022/08/11 06:53:44;;;;;;;;;;;29.50;34.40;;;;;;4868132;29;45047;-61
2022/08/11 07:01:46;;;;;;;;;;;29.60;34.40;;;;;;4867505;29;45697;-62
2022/08/11 07:04:11;;;;;;;;;;;29.60;34.30;;;;;;4895549;28;44878;-61
2022/08/11 07:06:37;;;;;;;;;;;29.60;34.30;;;;;;4897160;29;45138;-60
2022/08/11 07:28:54;;;;;;;;;;;29.70;34.20;;;;;;4873086;29;45383;-61
2022/08/11 07:28:56;;;;;;;;;;;29.60;34.30;;;;;;4882873;29;45441;-62
2022/08/11 07:31:25;;;;;;;;;;;29.60;34.20;;;;;;4895874;28;45366;-61
2022/08/11 07:33:51;;;;;;;;;;;29.60;34.30;;;;;;4884293;29;45315;-61
2022/08/11 07:36:16;;;;;;;;;;;29.70;34.40;;;;;;4882242;29;44753;-61
2022/08/11 07:38:43;;;;;;;;;;;29.70;34.30;;;;;;4896401;29;45465;-61
2022/08/11 07:41:09;;;;;;;;;;;29.70;34.30;;;;;;4881179;29;46194;-60
2022/08/11 07:43:35;;;;;;;;;;;29.70;34.30;;;;;;4882232;29;44711;-61
2022/08/11 07:54:14;;;;;;;;;;;29.80;34.10;;;;;;4880153;29;45420;-62
2022/08/11 07:56:40;;;;;;;;;;;29.80;34.10;;;;;;4881518;29;45386;-62
2022/08/11 08:18:17;;;;;;;;;;;30.00;33.70;;;;;;4882938;29;45299;-60
2022/08/11 08:20:46;;;;;;;;;;;30.00;33.70;;;;;;4881028;29;45131;-61
2022/08/11 08:23:11;;;;;;;;;;;30.00;33.70;;;;;;4881277;29;45418;-61
2022/08/11 08:25:38;;;;;;;;;;;30.00;33.60;;;;;;4880619;29;44697;-61
2022/08/11 08:28:12;;;;;;;;;;;30.10;33.60;;;;;;4880298;29;45291;-61
2022/08/11 08:30:48;;;;;;;;;;;30.10;33.60;;;;;;4879361;29;45533;-62
2022/08/11 08:33:16;;;;;;;;;;;30.10;33.60;;;;;;4880933;29;45161;-62
2022/08/11 08:35:43;;;;;;;;;;;30.00;33.40;;;;;;4894832;29;45254;-61
2022/08/11 08:38:08;;;;;;;;;;;30.10;33.50;;;;;;4879969;29;45396;-61
2022/08/11 08:40:34;;;;;;;;;;;30.10;33.50;;;;;;4880281;29;45438;-62
2022/08/11 08:43:06;;;;;;;;;;;30.10;33.50;;;;;;4880188;29;46033;-61
2022/08/11 08:45:33;;;;;;;;;;;30.10;33.50;;;;;;4879454;29;45203;-62
2022/08/11 08:48:00;;;;;;;;;;;30.10;33.50;;;;;;4881888;29;45154;-60
2022/08/11 08:51:32;;;;;;;;;;;30.10;33.50;;;;;;4895863;29;45027;-61
2022/08/11 08:53:13;;;;;;;;;;;30.20;33.50;;;;;;4879359;29;46055;-61
2022/08/11 08:55:39;;;;;;;;;;;30.20;33.40;;;;;;4894626;28;45004;-61
2022/08/11 08:58:05;;;;;;;;;;;30.20;33.40;;;;;;4879954;29;45674;-60
2022/08/11 09:00:41;;;;;;;;;;;30.20;33.40;;;;;;4878918;29;45457;-60
2022/08/11 09:03:07;;;;;;;;;;;30.20;33.50;;;;;;4869850;29;46133;-60
2022/08/11 09:05:32;;;;;;;;;;;30.20;33.40;;;;;;4877393;29;45293;-61
2022/08/11 09:07:58;;;;;;;;;;;30.20;33.30;;;;;;4887567;29;45326;-62
2022/08/11 09:10:23;;;;;;;;;;;30.20;33.40;;;;;;4886452;29;45484;-61
2022/08/11 09:12:48;;;;;;;;;;;30.20;33.30;;;;;;4871077;29;46074;-62
2022/08/11 09:15:15;;;;;;;;;;;30.20;33.30;;;;;;4876786;29;45231;-62
2022/08/11 09:17:44;;;;;;;;;;;30.30;33.40;;;;;;4880219;29;44820;-62
2022/08/11 09:20:17;;;;;;;;;;;30.30;33.30;;;;;;4865406;29;45167;-62
2022/08/11 09:28:13;;;;;;;;;;;30.30;33.20;;;;;;4876463;29;45311;-62
2022/08/11 09:30:42;;;;;;;;;;;30.30;33.10;;;;;;4880541;28;45600;-61
2022/08/11 09:33:08;;;;;;;;;;;30.40;33.20;;;;;;4872539;29;45911;-62
2022/08/11 09:35:35;;;;;;;;;;;30.40;33.00;;;;;;4882346;29;44740;-61
2022/08/11 09:40:46;;;;;;;;;;;30.40;33.00;;;;;;4886256;29;45208;-61
2022/08/11 09:45:56;;;;;;;;;;;30.40;32.80;;;;;;4866934;29;45746;-61
2022/08/11 09:48:22;;;;;;;;;;;30.40;32.70;;;;;;4887848;29;45479;-61
2022/08/11 09:50:50;;;;;;;;;;;30.40;33.40;;;;;;4874652;29;45628;-60
2022/08/11 09:53:15;;;;;;;;;;;30.50;32.80;;;;;;4863161;29;47555;-60
2022/08/11 09:55:42;;;;;;;;;;;30.50;32.60;;;;;;4881266;29;45266;-61
2022/08/11 09:58:15;;;;;;;;;;;30.50;32.50;;;;;;4863698;29;45268;-61
2022/08/11 10:00:41;;;;;;;;;;;30.50;32.40;;;;;;4857395;29;44763;-62
2022/08/11 10:03:07;;;;;;;;;;;30.50;32.30;;;;;;4864588;29;45588;-61
2022/08/11 10:08:20;;;;;;;;;;;30.50;32.30;;;;;;4877347;29;45532;-61
2022/08/11 10:10:45;;;;;;;;;;;30.50;32.30;;;;;;4862919;29;45586;-62
2022/08/11 10:13:15;;;;;;;;;;;30.50;32.20;;;;;;4880833;29;45139;-62
2022/08/11 10:15:42;;;;;;;;;;;30.50;32.10;;;;;;4879494;29;45222;-61
2022/08/11 10:21:02;;;;;;;;;;;30.60;32.30;;;;;;4877817;29;45309;-61
2022/08/11 10:28:58;;;;;;;;;;;30.60;32.10;;;;;;4875967;29;44726;-61
2022/08/11 10:34:08;;;;;;;;;;;30.60;32.10;;;;;;4878022;29;45320;-61
2022/08/11 10:36:41;;;;;;;;;;;30.70;32.10;;;;;;4874733;29;45488;-61
2022/08/11 10:39:07;;;;;;;;;;;30.60;32.10;;;;;;4876253;29;45038;-62
2022/08/11 10:44:18;;;;;;;;;;;30.60;32.00;;;;;;4868284;29;45572;-61
2022/08/11 10:49:28;;;;;;;;;;;30.70;32.10;;;;;;4873238;29;45546;-62
2022/08/11 11:00:08;;;;;;;;;;;30.70;32.10;;;;;;4879116;29;45522;-62
2022/08/11 11:02:34;;;;;;;;;;;30.70;32.10;;;;;;4869027;29;45372;-62
2022/08/11 11:05:08;;;;;;;;;;;30.70;32.10;;;;;;4864326;29;45170;-61
2022/08/11 11:07:46;;;;;;;;;;;30.70;32.10;;;;;;4883245;29;45514;-61
2022/08/11 11:10:11;;;;;;;;;;;30.70;32.10;;;;;;4860699;29;45249;-61
2022/08/11 11:18:18;;;;;;;;;;;30.70;32.00;;;;;;4874486;29;45480;-61
2022/08/11 11:20:44;;;;;;;;;;;30.70;32.10;;;;;;4880293;29;45124;-61
2022/08/11 11:23:13;;;;;;;;;;;30.70;32.00;;;;;;4877130;29;45246;-62
2022/08/11 11:26:05;;;;;;;;;;;30.70;32.70;;;;;;4882081;29;46137;-62
2022/08/11 11:28:43;;;;;;;;;;;30.70;32.00;;;;;;4876692;29;45156;-62
2022/08/11 11:31:11;;;;;;;;;;;30.70;32.00;;;;;;4879961;29;45237;-60
2022/08/11 11:33:40;;;;;;;;;;;30.70;32.00;;;;;;4882470;29;45434;-61
2022/08/11 11:36:12;;;;;;;;;;;30.70;32.10;;;;;;4878726;29;45919;-60
2022/08/11 11:38:40;;;;;;;;;;;30.80;32.10;;;;;;4882217;29;44997;-61
2022/08/11 11:41:24;;;;;;;;;;;30.80;32.00;;;;;;4881823;29;45511;-61
2022/08/11 11:43:56;;;;;;;;;;;30.70;32.00;;;;;;4868011;29;45313;-61
2022/08/11 11:46:23;;;;;;;;;;;30.70;32.00;;;;;;4881360;29;46174;-61
2022/08/11 11:48:48;;;;;;;;;;;30.70;32.00;;;;;;4876223;29;44657;-61
2022/08/11 11:51:14;;;;;;;;;;;30.80;32.00;;;;;;4877163;29;45515;-62
2022/08/11 11:53:44;;;;;;;;;;;30.70;32.00;;;;;;4881916;29;44694;-61
2022/08/11 11:56:10;;;;;;;;;;;30.70;32.00;;;;;;4876944;29;46096;-62
2022/08/11 12:01:23;;;;;;;;;;;30.80;32.10;;;;;;4864562;29;45244;-62
2022/08/11 12:03:50;;;;;;;;;;;30.80;32.10;;;;;;4895234;29;45524;-62
2022/08/11 12:06:15;;;;;;;;;;;30.80;32.10;;;;;;4880976;29;46964;-62
2022/08/11 12:08:41;;;;;;;;;;;30.80;32.10;;;;;;4889303;29;45235;-61
2022/08/11 12:13:52;;;;;;;;;;;30.80;32.10;;;;;;4893988;29;45273;-61
2022/08/11 12:16:18;;;;;;;;;;;30.80;32.10;;;;;;4879725;29;45485;-61
2022/08/11 12:18:45;;;;;;;;;;;30.80;32.10;;;;;;4880170;29;45284;-61
2022/08/11 12:21:10;;;;;;;;;;;30.80;32.00;;;;;;4879687;29;45222;-62
2022/08/11 12:29:05;;;;;;;;;;;30.80;31.80;;;;;;4879923;29;45217;-61
2022/08/11 12:31:31;;;;;;;;;;;30.80;31.90;;;;;;4882016;29;44938;-60
2022/08/11 12:34:01;;;;;;;;;;;30.80;31.80;;;;;;4895118;29;45195;-60
2022/08/11 12:36:26;;;;;;;;;;;30.80;31.80;;;;;;4879662;29;45488;-61
2022/08/11 12:38:52;;;;;;;;;;;30.80;31.80;;;;;;4893220;28;45130;-61
2022/08/11 12:46:46;;;;;;;;;;;30.80;32.50;;;;;;4881689;29;46164;-61
2022/08/11 12:51:57;;;;;;;;;;;30.80;31.90;;;;;;4883081;29;45252;-60
2022/08/11 12:54:26;;;;;;;;;;;30.80;31.80;;;;;;4882110;29;45260;-61
2022/08/11 13:05:32;;;;;;;;;;;30.80;31.70;;;;;;4881549;29;45255;-61
2022/08/11 13:07:57;;;;;;;;;;;30.90;31.80;;;;;;4881973;29;46146;-61
2022/08/11 13:13:07;;;;;;;;;;;30.90;31.80;;;;;;4881224;29;45174;-61
2022/08/11 13:15:35;;;;;;;;;;;30.80;31.70;;;;;;4882184;29;45774;-61
2022/08/11 13:18:00;;;;;;;;;;;30.90;31.80;;;;;;4881169;29;45404;-62
2022/08/11 13:20:26;;;;;;;;;;;30.90;31.70;;;;;;4888191;28;45002;-61
2022/08/11 13:22:52;;;;;;;;;;;30.90;31.70;;;;;;4880838;29;45158;-61
2022/08/11 13:25:18;;;;;;;;;;;30.90;31.60;;;;;;4878976;29;44989;-61
2022/08/11 13:27:45;;;;;;;;;;;30.90;31.60;;;;;;4882188;29;45391;-61
2022/08/11 13:32:55;;;;;;;;;;;30.90;31.60;;;;;;4879782;29;45905;-62
2022/08/11 13:35:21;;;;;;;;;;;30.90;31.50;;;;;;4883003;29;45537;-61
2022/08/11 13:37:46;;;;;;;;;;;30.90;31.60;;;;;;4881123;29;46095;-61
2022/08/11 13:40:12;;;;;;;;;;;30.90;31.50;;;;;;4882571;29;45006;-61
2022/08/11 13:42:38;;;;;;;;;;;30.90;31.40;;;;;;4883148;29;44718;-61
2022/08/11 13:45:06;;;;;;;;;;;30.90;31.50;;;;;;4876983;29;45716;-60
2022/08/11 13:47:32;;;;;;;;;;;30.90;31.50;;;;;;4880111;29;45863;-61
2022/08/11 13:49:57;;;;;;;;;;;30.90;31.50;;;;;;4878754;29;45631;-61
2022/08/11 13:52:23;;;;;;;;;;;30.90;31.50;;;;;;4883996;29;45203;-62
2022/08/11 13:54:49;;;;;;;;;;;30.90;31.50;;;;;;4877906;29;45511;-62
2022/08/11 13:57:17;;;;;;;;;;;30.90;31.50;;;;;;4891469;29;46246;-62
2022/08/11 13:59:43;;;;;;;;;;;30.90;31.50;;;;;;4878734;29;45412;-61
2022/08/11 14:02:11;;;;;;;;;;;30.90;31.40;;;;;;4872917;29;44920;-62
2022/08/11 14:04:47;;;;;;;;;;;30.90;31.40;;;;;;4893625;29;45565;-60
2022/08/11 14:07:13;;;;;;;;;;;30.90;31.10;;;;;;4879957;29;46101;-61
2022/08/11 14:09:39;;;;;;;;;;;30.90;31.20;;;;;;4877281;29;45456;-60
2022/08/11 14:14:53;;;;;;;;;;;30.90;31.30;;;;;;4866454;29;45103;-62
2022/08/11 14:17:18;;;;;;;;;;;30.90;31.30;;;;;;4878101;29;46243;-62
2022/08/11 14:19:44;;;;;;;;;;;30.90;31.30;;;;;;4878459;29;46445;-61
2022/08/11 14:22:10;;;;;;;;;;;30.90;31.30;;;;;;4876535;29;45403;-62
2022/08/11 14:24:39;;;;;;;;;;;30.90;31.30;;;;;;4891905;29;45672;-62
2022/08/11 14:27:05;;;;;;;;;;;30.90;31.30;;;;;;4879283;29;45976;-61
2022/08/11 14:29:31;;;;;;;;;;;30.90;31.30;;;;;;4874105;29;45693;-62
2022/08/11 14:31:57;;;;;;;;;;;30.90;31.20;;;;;;4880486;29;45667;-61
2022/08/11 14:34:27;;;;;;;;;;;30.90;31.20;;;;;;4894148;28;45291;-61
2022/08/11 14:36:53;;;;;;;;;;;30.90;31.10;;;;;;4880954;29;46219;-61
2022/08/11 14:39:26;;;;;;;;;;;30.90;31.10;;;;;;4882646;29;45219;-61
2022/08/11 14:47:24;;;;;;;;;;;30.90;31.30;;;;;;4875490;29;46012;-61
2022/08/11 14:49:53;;;;;;;;;;;30.90;31.30;;;;;;4879972;29;45351;-62
2022/08/11 14:52:19;;;;;;;;;;;30.90;31.30;;;;;;4882105;29;45446;-62
2022/08/11 14:57:34;;;;;;;;;;;30.90;31.30;;;;;;4882292;29;45213;-62
2022/08/11 15:00:01;;;;;;;;;;;30.90;31.30;;;;;;4878618;29;45475;-61
2022/08/11 15:05:10;;;;;;;;;;;30.90;31.30;;;;;;4880374;29;45004;-61
2022/08/11 15:07:36;;;;;;;;;;;30.90;31.30;;;;;;4881228;29;46009;-62
2022/08/11 15:10:03;;;;;;;;;;;30.90;31.20;;;;;;4874650;29;45290;-62
2022/08/11 15:12:28;;;;;;;;;;;30.90;31.20;;;;;;4878963;29;45370;-62
2022/08/11 15:17:38;;;;;;;;;;;30.90;31.10;;;;;;4882399;29;45179;-62
2022/08/11 15:25:33;;;;;;;;;;;30.90;31.00;;;;;;4880417;29;45698;-62
2022/08/11 15:39:01;;;;;;;;;;;30.90;31.00;;;;;;4870588;29;47116;-62
2022/08/11 15:46:56;;;;;;;;;;;30.90;31.00;;;;;;4876336;29;45355;-61
2022/08/11 15:49:23;;;;;;;;;;;30.90;31.10;;;;;;4879518;29;46080;-61
2022/08/11 15:51:56;;;;;;;;;;;30.90;31.00;;;;;;4881816;29;45458;-62
2022/08/11 15:54:22;;;;;;;;;;;30.90;31.00;;;;;;4876936;29;45477;-62
2022/08/11 15:56:49;;;;;;;;;;;30.90;31.00;;;;;;4872079;29;45243;-62
2022/08/11 16:04:43;;;;;;;;;;;30.90;30.80;;;;;;4889231;29;44983;-62
2022/08/11 16:07:10;;;;;;;;;;;30.90;30.80;;;;;;4895238;29;45275;-61
2022/08/11 16:09:55;;;;;;;;;;;30.90;30.80;;;;;;4879845;29;46302;-60
2022/08/11 16:12:36;;;;;;;;;;;30.90;30.80;;;;;;4880714;29;45546;-61
2022/08/11 16:18:09;;;;;;;;;;;30.90;30.80;;;;;;4880676;29;45490;-60
2022/08/11 16:20:36;;;;;;;;;;;30.90;30.70;;;;;;4879334;29;46106;-61
2022/08/11 16:23:02;;;;;;;;;;;30.90;30.70;;;;;;4880030;29;45139;-61
2022/08/11 16:25:27;;;;;;;;;;;30.90;30.60;;;;;;4891793;29;45194;-61
2022/08/11 16:27:58;;;;;;;;;;;30.90;30.70;;;;;;4878740;29;45243;-61
2022/08/11 16:30:24;;;;;;;;;;;30.90;30.70;;;;;;4879832;29;46226;-60
2022/08/11 16:32:51;;;;;;;;;;;30.90;30.60;;;;;;4879579;29;45313;-61
2022/08/11 16:40:47;;;;;;;;;;;30.90;30.50;;;;;;4879328;29;47104;-61
2022/08/11 16:48:42;;;;;;;;;;;30.90;30.50;;;;;;4882321;29;45518;-60
2022/08/11 16:51:09;;;;;;;;;;;30.90;30.60;;;;;;4894575;29;45966;-60
2022/08/11 16:53:37;;;;;;;;;;;30.90;30.70;;;;;;4880544;29;45176;-61
2022/08/11 16:56:02;;;;;;;;;;;30.90;30.70;;;;;;4871981;29;45282;-61
2022/08/11 17:01:13;;;;;;;;;;;30.80;30.60;;;;;;4873914;29;46867;-61
2022/08/11 17:14:40;;;;;;;;;;;30.90;30.60;;;;;;4877668;29;45432;-60
2022/08/11 17:17:08;;;;;;;;;;;30.80;30.50;;;;;;4879196;29;45378;-61
2022/08/11 17:19:33;;;;;;;;;;;30.80;30.60;;;;;;4879897;29;45244;-61
2022/08/11 17:24:43;;;;;;;;;;;30.80;30.50;;;;;;4875685;29;45193;-60
2022/08/11 17:27:09;;;;;;;;;;;30.80;30.30;;;;;;4894248;29;45521;-61
2022/08/11 17:29:39;;;;;;;;;;;30.80;30.50;;;;;;4874258;29;45021;-61
2022/08/11 17:37:44;;;;;;;;;;;30.80;30.00;;;;;;4880690;29;45081;-61
2022/08/11 17:40:11;;;;;;;;;;;30.80;30.20;;;;;;4878480;29;45513;-61
2022/08/11 17:50:51;;;;;;;;;;;30.80;30.30;;;;;;4877932;29;45327;-61
2022/08/11 18:01:32;;;;;;;;;;;30.70;30.90;;;;;;4880970;29;45276;-61
2022/08/11 18:03:58;;;;;;;;;;;30.70;30.80;;;;;;4894313;29;45461;-61
2022/08/11 18:06:24;;;;;;;;;;;30.70;30.80;;;;;;4879442;29;45290;-60
